Time;durP1;ratioP1;P1;durP2;ratioP2;P2;SDS_P1;SDS_P2;PMS_P1;PMS_P2;Temp;Humidity;BMP_temperature;BMP_pressure;BME280_temperature;BME280_humidity;BME280_pressure;Samples;Min_cycle;Max_cycle;Signal;HPM_P1;HPM_P2
2022/04/28 00:01:04;;;;;;;11.52;2.63;;;7.60;99.90;;;;;;4884222;29;20540;-82
2022/04/28 00:03:30;;;;;;;11.32;2.47;;;7.60;99.90;;;;;;4877749;29;20120;-82
2022/04/28 00:05:57;;;;;;;15.23;3.22;;;7.70;99.90;;;;;;4877792;29;20533;-82
2022/04/28 00:08:23;;;;;;;12.32;2.55;;;7.80;99.90;;;;;;4877240;29;20501;-82
2022/04/28 00:10:49;;;;;;;14.43;2.60;;;7.70;99.90;;;;;;4877308;29;20120;-82
2022/04/28 00:13:15;;;;;;;11.27;2.80;;;7.70;99.90;;;;;;4878242;29;20111;-82
2022/04/28 00:15:41;;;;;;;10.65;2.67;;;7.70;99.90;;;;;;4875918;29;20048;-83
2022/04/28 00:18:07;;;;;;;13.50;3.00;;;7.70;99.90;;;;;;4877377;29;20060;-82
2022/04/28 00:20:33;;;;;;;14.63;2.95;;;7.70;99.90;;;;;;4894487;29;20055;-83
2022/04/28 00:22:59;;;;;;;9.45;2.40;;;7.70;99.90;;;;;;4866206;29;20049;-82
2022/04/28 00:25:24;;;;;;;18.35;3.60;;;7.90;99.90;;;;;;4888911;29;20048;-83
2022/04/28 00:27:51;;;;;;;10.52;2.83;;;7.70;99.90;;;;;;4881684;29;20044;-83
2022/04/28 00:30:17;;;;;;;12.85;2.92;;;7.70;99.90;;;;;;4894673;29;20499;-83
2022/04/28 00:32:43;;;;;;;11.10;3.33;;;8.00;99.90;;;;;;4913178;29;20056;-83
2022/04/28 00:35:09;;;;;;;12.57;3.20;;;7.70;99.90;;;;;;4872134;29;20404;-83
2022/04/28 00:37:34;;;;;;;16.40;3.42;;;7.70;99.90;;;;;;4858848;29;20505;-83
2022/04/28 00:40:01;;;;;;;14.05;2.90;;;7.70;99.90;;;;;;4857980;29;20137;-83
2022/04/28 00:42:28;;;;;;;11.30;2.78;;;7.70;99.90;;;;;;4857695;29;20160;-83
2022/04/28 00:44:54;;;;;;;14.90;3.08;;;7.70;99.90;;;;;;4857814;29;20048;-83
2022/04/28 00:47:19;;;;;;;14.43;3.63;;;8.00;99.90;;;;;;4874777;29;20382;-82
2022/04/28 00:52:32;;;;;;;12.23;3.15;;;7.70;99.90;;;;;;4858791;29;20064;-83
2022/04/28 00:54:58;;;;;;;17.55;3.05;;;7.70;99.90;;;;;;4857988;29;20049;-83
2022/04/28 00:57:25;;;;;;;14.30;3.33;;;7.70;99.90;;;;;;4857735;29;20052;-82
2022/04/28 00:59:52;;;;;;;14.88;3.22;;;7.70;99.90;;;;;;4857568;29;20109;-82
2022/04/28 01:02:18;;;;;;;14.95;2.85;;;7.90;99.90;;;;;;4857895;29;20365;-82
2022/04/28 01:04:44;;;;;;;11.70;3.10;;;7.70;99.90;;;;;;4874271;29;20067;-83
2022/04/28 01:07:10;;;;;;;13.68;3.00;;;7.80;99.90;;;;;;4858368;29;20048;-82
2022/04/28 01:09:37;;;;;;;12.32;2.72;;;7.80;99.90;;;;;;4858627;29;20053;-82
2022/04/28 01:12:06;;;;;;;14.73;2.72;;;7.70;99.90;;;;;;4856884;29;20045;-83
2022/04/28 01:14:31;;;;;;;11.20;2.83;;;7.80;99.90;;;;;;4858097;29;20406;-83
2022/04/28 01:16:59;;;;;;;12.80;3.10;;;7.70;99.90;;;;;;4872510;29;20074;-82
2022/04/28 01:19:25;;;;;;;12.27;3.00;;;8.00;99.90;;;;;;4857587;29;20048;-82
2022/04/28 01:21:52;;;;;;;12.38;2.53;;;7.70;99.90;;;;;;4874385;29;20063;-83
2022/04/28 01:24:18;;;;;;;9.52;2.80;;;7.70;99.90;;;;;;4858326;29;20049;-83
2022/04/28 01:26:46;;;;;;;11.20;2.85;;;7.70;99.90;;;;;;4877119;29;20056;-83
2022/04/28 01:29:11;;;;;;;13.63;2.67;;;7.80;99.90;;;;;;4886502;29;20147;-83
2022/04/28 01:31:37;;;;;;;8.23;2.47;;;7.70;99.90;;;;;;4874962;29;20476;-83
2022/04/28 01:34:03;;;;;;;10.02;2.20;;;7.70;99.90;;;;;;4876021;29;20099;-82
2022/04/28 01:36:29;;;;;;;13.15;3.50;;;7.70;99.90;;;;;;4878559;29;20469;-82
2022/04/28 01:38:54;;;;;;;13.85;2.95;;;7.80;99.90;;;;;;4873212;29;20049;-82
2022/04/28 01:41:20;;;;;;;16.92;3.20;;;7.80;99.90;;;;;;4857999;29;20049;-82
2022/04/28 01:43:46;;;;;;;7.80;2.90;;;8.20;99.90;;;;;;4857849;29;20053;-82
2022/04/28 01:46:12;;;;;;;11.50;2.90;;;7.80;99.90;;;;;;4866614;29;20502;-82
2022/04/28 01:48:38;;;;;;;12.95;2.90;;;7.70;99.90;;;;;;4893527;29;20090;-82
2022/04/28 01:56:32;;;;;;;10.95;2.78;;;8.20;99.90;;;;;;4879951;29;20127;-82
2022/04/28 01:58:58;;;;;;;8.40;2.70;;;7.80;99.90;;;;;;4911459;29;20083;-82
2022/04/28 02:01:23;;;;;;;9.57;2.70;;;7.70;99.90;;;;;;4897837;29;20536;-83
2022/04/28 02:03:49;;;;;;;11.75;3.03;;;7.70;99.90;;;;;;4915202;29;20076;-82
2022/04/28 02:06:16;;;;;;;8.57;2.78;;;7.70;99.90;;;;;;4898788;29;20148;-82
2022/04/28 02:08:42;;;;;;;13.38;3.00;;;7.70;99.90;;;;;;4897831;29;20504;-82
2022/04/28 02:11:07;;;;;;;9.68;2.75;;;7.70;99.90;;;;;;4915578;29;20047;-82
2022/04/28 02:13:34;;;;;;;7.07;2.90;;;7.70;99.90;;;;;;4915387;29;20048;-82
2022/04/28 02:15:59;;;;;;;14.38;2.95;;;8.00;99.90;;;;;;4879646;29;20044;-82
2022/04/28 02:18:25;;;;;;;13.13;3.17;;;7.60;99.90;;;;;;4880026;29;20055;-82
2022/04/28 02:20:50;;;;;;;10.65;2.80;;;7.70;99.90;;;;;;4878092;29;20055;-82
2022/04/28 02:23:16;;;;;;;15.80;3.17;;;7.80;99.90;;;;;;4864314;29;20066;-82
2022/04/28 02:25:42;;;;;;;14.18;2.92;;;7.90;99.90;;;;;;4880032;29;20048;-82
2022/04/28 02:28:07;;;;;;;7.30;2.70;;;7.80;99.90;;;;;;4895580;29;20107;-82
2022/04/28 02:30:33;;;;;;;8.75;2.53;;;7.70;99.90;;;;;;4878884;29;20116;-82
2022/04/28 02:33:08;;;;;;;11.60;2.65;;;7.70;99.90;;;;;;4885622;29;20139;-82
2022/04/28 02:35:35;;;;;;;9.52;2.75;;;7.70;99.90;;;;;;4889130;29;20059;-82
2022/04/28 02:38:01;;;;;;;13.77;2.63;;;7.70;99.90;;;;;;4895684;29;20080;-83
2022/04/28 02:40:26;;;;;;;11.45;3.03;;;7.70;99.90;;;;;;4881448;29;20151;-82
2022/04/28 02:42:53;;;;;;;15.63;3.90;;;7.70;99.90;;;;;;4896692;29;20059;-82
2022/04/28 02:45:19;;;;;;;10.65;2.40;;;7.60;99.90;;;;;;4896915;29;20146;-82
2022/04/28 02:47:45;;;;;;;10.15;2.75;;;7.60;99.90;;;;;;4860666;29;20077;-81
2022/04/28 02:50:11;;;;;;;15.63;3.10;;;7.80;99.90;;;;;;4859503;29;20053;-82
2022/04/28 02:52:39;;;;;;;16.45;3.38;;;7.70;99.90;;;;;;4861113;29;20053;-82
2022/04/28 02:55:06;;;;;;;12.38;3.10;;;7.60;99.90;;;;;;4876819;29;20055;-82
2022/04/28 02:57:31;;;;;;;11.85;2.88;;;7.70;99.90;;;;;;4860193;29;20141;-82
2022/04/28 02:59:57;;;;;;;11.45;2.97;;;7.70;99.90;;;;;;4859918;29;20481;-83
2022/04/28 03:02:24;;;;;;;10.70;2.80;;;7.90;99.90;;;;;;4859965;29;20530;-82
2022/04/28 03:04:49;;;;;;;10.02;2.47;;;7.70;99.90;;;;;;4858690;29;20052;-82
2022/04/28 03:12:44;;;;;;;20.17;3.33;;;7.60;99.90;;;;;;4860276;29;20061;-82
2022/04/28 03:15:11;;;;;;;11.75;3.00;;;7.90;99.90;;;;;;4859942;29;20065;-81
2022/04/28 03:17:37;;;;;;;11.85;3.10;;;7.70;99.90;;;;;;4859249;29;20049;-82
2022/04/28 03:20:03;;;;;;;8.98;3.53;;;7.60;99.90;;;;;;4859965;29;20056;-82
2022/04/28 03:22:29;;;;;;;10.23;3.13;;;7.60;99.90;;;;;;4860033;29;20141;-82
2022/04/28 03:24:55;;;;;;;11.27;3.42;;;7.60;99.90;;;;;;4858933;29;20049;-82
2022/04/28 03:27:21;;;;;;;12.18;3.20;;;7.60;99.90;;;;;;4860079;29;20049;-82
2022/04/28 03:29:46;;;;;;;11.10;3.80;;;7.60;99.90;;;;;;4859708;29;20080;-82
2022/04/28 03:32:12;;;;;;;11.98;3.25;;;7.50;99.90;;;;;;4870863;29;20484;-82
2022/04/28 03:34:37;;;;;;;10.98;3.45;;;7.60;99.90;;;;;;4901633;29;20128;-82
2022/04/28 03:37:03;;;;;;;17.20;3.33;;;7.60;99.90;;;;;;4878059;29;20041;-82
2022/04/28 03:39:29;;;;;;;15.15;3.83;;;7.70;99.90;;;;;;4896883;29;20048;-81
2022/04/28 03:41:55;;;;;;;12.98;3.55;;;7.50;99.90;;;;;;4891918;29;20055;-82
2022/04/28 03:44:20;;;;;;;10.32;3.25;;;7.60;99.90;;;;;;4878563;29;20045;-82
2022/04/28 03:46:46;;;;;;;10.27;3.30;;;7.80;99.90;;;;;;4876535;29;20457;-82
2022/04/28 03:49:12;;;;;;;11.18;3.55;;;7.60;99.90;;;;;;4897214;29;20152;-82
2022/04/28 03:51:38;;;;;;;18.67;3.95;;;7.60;99.90;;;;;;4886254;29;20045;-82
2022/04/28 03:54:04;;;;;;;13.15;4.50;;;7.60;99.90;;;;;;4876898;29;20116;-82
2022/04/28 03:56:31;;;;;;;12.43;3.40;;;7.60;99.90;;;;;;4878233;29;20049;-82
2022/04/28 03:58:59;;;;;;;11.45;3.90;;;7.60;99.90;;;;;;4877275;29;20064;-82
2022/04/28 04:01:25;;;;;;;11.05;3.47;;;7.70;99.90;;;;;;4893808;29;20092;-82
2022/04/28 04:03:51;;;;;;;13.95;3.85;;;7.60;99.90;;;;;;4877697;29;20101;-82
2022/04/28 04:06:17;;;;;;;13.50;3.75;;;7.60;99.90;;;;;;4877050;29;20045;-82
2022/04/28 04:08:42;;;;;;;11.82;3.83;;;7.60;99.90;;;;;;4882582;29;20063;-82
2022/04/28 04:11:08;;;;;;;11.07;3.38;;;7.70;99.90;;;;;;4888565;29;20056;-83
2022/04/28 04:13:34;;;;;;;10.82;3.08;;;7.70;99.90;;;;;;4873764;29;20045;-83
2022/04/28 04:16:00;;;;;;;11.70;3.65;;;7.70;99.90;;;;;;4847074;29;20052;-83
2022/04/28 04:18:26;;;;;;;13.77;3.78;;;7.70;99.90;;;;;;4896072;29;20044;-82
2022/04/28 04:20:51;;;;;;;12.27;3.38;;;7.80;99.90;;;;;;4895313;29;20051;-83
2022/04/28 04:23:17;;;;;;;10.35;3.65;;;7.70;99.90;;;;;;4895299;29;20139;-83
2022/04/28 04:25:43;;;;;;;12.02;3.78;;;7.80;99.90;;;;;;4884413;29;20095;-81
2022/04/28 04:28:09;;;;;;;10.48;3.97;;;7.80;99.90;;;;;;4886872;29;20048;-84
2022/04/28 04:33:19;;;;;;;13.60;4.43;;;7.90;99.90;;;;;;4902178;29;20063;-83
2022/04/28 04:35:45;;;;;;;14.05;4.60;;;7.50;99.90;;;;;;4880362;29;20048;-82
2022/04/28 04:38:10;;;;;;;11.63;4.70;;;7.40;99.90;;;;;;4895684;29;20142;-83
2022/04/28 04:40:36;;;;;;;12.18;4.82;;;7.40;99.90;;;;;;4887871;29;20475;-83
2022/04/28 04:43:03;;;;;;;11.73;4.75;;;7.30;99.90;;;;;;4873650;29;20103;-83
2022/04/28 04:45:28;;;;;;;12.63;4.40;;;7.30;99.90;;;;;;4876539;29;20512;-83
2022/04/28 04:47:54;;;;;;;18.63;5.28;;;7.10;99.90;;;;;;4893873;29;20077;-83
2022/04/28 04:50:20;;;;;;;16.63;5.10;;;7.10;99.90;;;;;;4876536;29;20056;-83
2022/04/28 04:52:45;;;;;;;20.38;5.30;;;7.00;99.90;;;;;;4876710;29;20048;-83
2022/04/28 04:55:11;;;;;;;13.50;5.07;;;6.90;99.90;;;;;;4876704;29;20052;-82
2022/04/28 04:57:37;;;;;;;12.85;4.47;;;6.90;99.90;;;;;;4898758;29;20040;-82
2022/04/28 05:00:04;;;;;;;20.98;5.50;;;6.90;99.90;;;;;;4883030;29;20416;-82
2022/04/28 05:02:30;;;;;;;18.25;5.40;;;6.80;99.90;;;;;;4872055;29;20787;-83
2022/04/28 05:04:55;;;;;;;20.83;4.70;;;6.80;99.90;;;;;;4876551;29;20067;-83
2022/04/28 05:07:21;;;;;;;16.50;4.93;;;6.70;99.90;;;;;;4876762;29;20647;-83
2022/04/28 05:09:47;;;;;;;16.88;4.68;;;6.70;99.90;;;;;;4875692;29;20071;-81
2022/04/28 05:12:12;;;;;;;20.08;5.60;;;6.90;99.90;;;;;;4890551;29;20091;-81
2022/04/28 05:14:38;;;;;;;18.35;5.07;;;6.90;99.90;;;;;;4885800;29;20057;-81
2022/04/28 05:17:04;;;;;;;17.27;4.45;;;6.70;99.90;;;;;;4908041;29;20528;-81
2022/04/28 05:19:30;;;;;;;25.35;5.03;;;6.70;99.90;;;;;;4905354;29;20059;-81
2022/04/28 05:21:55;;;;;;;31.55;5.80;;;6.70;99.90;;;;;;4894777;29;20056;-82
2022/04/28 05:24:21;;;;;;;20.88;4.20;;;6.80;99.90;;;;;;4879105;29;20076;-82
2022/04/28 05:26:47;;;;;;;15.25;4.30;;;6.90;99.90;;;;;;4872763;29;20121;-81
2022/04/28 05:29:13;;;;;;;18.98;3.85;;;7.00;99.90;;;;;;4857906;29;20049;-81
2022/04/28 05:31:39;;;;;;;14.13;3.75;;;7.10;99.90;;;;;;4853335;29;20044;-81
2022/04/28 05:34:04;;;;;;;12.43;3.95;;;7.30;99.90;;;;;;4887428;29;20052;-81
2022/04/28 05:36:30;;;;;;;13.65;3.75;;;7.40;99.90;;;;;;4893996;29;20044;-82
2022/04/28 05:38:58;;;;;;;9.75;3.65;;;7.50;99.90;;;;;;4893718;29;20056;-81
2022/04/28 05:41:25;;;;;;;12.02;3.75;;;7.70;99.90;;;;;;4881455;29;20078;-82
2022/04/28 05:46:36;;;;;;;11.00;3.20;;;7.70;99.90;;;;;;4860352;29;20059;-81
2022/04/28 05:49:02;;;;;;;12.90;3.85;;;8.10;99.90;;;;;;4879908;29;20504;-82
2022/04/28 05:51:27;;;;;;;12.02;3.17;;;7.90;99.90;;;;;;4889939;29;20059;-82
2022/04/28 05:53:53;;;;;;;12.38;2.90;;;7.90;99.90;;;;;;4885047;29;20635;-82
2022/04/28 05:56:19;;;;;;;12.10;3.13;;;8.00;99.90;;;;;;4895152;29;20136;-81
2022/04/28 05:58:47;;;;;;;15.57;3.30;;;8.00;99.90;;;;;;4894128;29;20392;-81
2022/04/28 06:01:13;;;;;;;11.38;3.00;;;8.00;99.90;;;;;;4893777;29;20132;-81
2022/04/28 06:03:40;;;;;;;18.30;3.53;;;8.30;99.90;;;;;;4886479;29;20052;-82
2022/04/28 06:06:07;;;;;;;11.73;3.22;;;8.20;99.90;;;;;;4874912;29;20063;-82
2022/04/28 06:08:33;;;;;;;8.98;3.17;;;8.30;99.90;;;;;;4893249;29;20041;-82
2022/04/28 06:11:01;;;;;;;13.38;3.00;;;8.20;99.90;;;;;;4859645;29;20516;-81
2022/04/28 06:13:27;;;;;;;15.13;3.40;;;8.30;99.90;;;;;;4877099;29;20055;-81
2022/04/28 06:15:53;;;;;;;14.20;3.00;;;8.30;99.90;;;;;;4885024;29;20057;-82
2022/04/28 06:18:18;;;;;;;16.17;3.95;;;8.40;99.90;;;;;;4885183;29;20055;-82
2022/04/28 06:20:45;;;;;;;12.32;3.13;;;8.40;99.90;;;;;;4868591;29;20056;-82
2022/04/28 06:23:11;;;;;;;15.98;3.20;;;8.40;99.90;;;;;;4870474;29;20040;-82
2022/04/28 06:25:38;;;;;;;15.15;3.13;;;8.50;99.90;;;;;;4869563;29;20063;-82
2022/04/28 06:28:04;;;;;;;19.25;3.80;;;8.50;99.90;;;;;;4884005;29;20118;-82
2022/04/28 06:30:30;;;;;;;15.05;2.80;;;8.60;99.90;;;;;;4875025;29;20052;-82
2022/04/28 06:32:56;;;;;;;12.70;2.88;;;8.70;99.90;;;;;;4903759;29;20040;-82
2022/04/28 06:35:22;;;;;;;14.25;2.90;;;8.80;99.90;;;;;;4884681;29;20045;-82
2022/04/28 06:37:47;;;;;;;17.25;2.55;;;8.90;99.90;;;;;;4885152;29;20470;-84
2022/04/28 06:40:14;;;;;;;16.02;2.55;;;9.00;99.90;;;;;;4885522;29;20541;-82
2022/04/28 06:42:43;;;;;;;12.07;2.15;;;9.10;99.90;;;;;;4886730;29;20076;-83
2022/04/28 06:45:11;;;;;;;11.38;2.03;;;9.20;99.90;;;;;;4871190;29;20075;-83
2022/04/28 06:47:36;;;;;;;13.35;2.10;;;9.20;99.90;;;;;;4885307;29;20055;-84
2022/04/28 06:50:03;;;;;;;8.13;1.60;;;9.30;99.90;;;;;;4885383;29;20364;-82
2022/04/28 06:52:28;;;;;;;10.18;2.00;;;9.40;99.90;;;;;;4867649;29;20642;-83
2022/04/28 06:54:54;;;;;;;11.35;1.92;;;9.40;99.90;;;;;;4887683;29;20126;-84
2022/04/28 06:57:20;;;;;;;13.50;2.80;;;9.50;99.90;;;;;;4897010;29;20040;-83
2022/04/28 06:59:45;;;;;;;14.45;2.40;;;9.90;99.90;;;;;;4898572;29;20048;-84
2022/04/28 07:02:11;;;;;;;13.65;2.20;;;9.50;99.90;;;;;;4888560;29;20114;-84
2022/04/28 07:04:37;;;;;;;13.45;2.25;;;9.50;99.90;;;;;;4887676;29;20590;-83
2022/04/28 07:07:03;;;;;;;11.45;2.10;;;9.50;99.90;;;;;;4879466;29;20492;-83
2022/04/28 07:09:29;;;;;;;12.23;2.03;;;9.60;99.90;;;;;;4882860;29;20060;-83
2022/04/28 07:11:54;;;;;;;10.02;1.70;;;9.70;99.90;;;;;;4908323;29;20055;-83
2022/04/28 07:14:20;;;;;;;18.48;2.47;;;9.90;99.90;;;;;;4906064;29;20583;-84
2022/04/28 07:16:46;;;;;;;14.30;2.00;;;10.10;99.90;;;;;;4872530;29;20413;-82
2022/04/28 07:19:11;;;;;;;13.70;2.47;;;10.10;99.90;;;;;;4886763;29;20048;-83
2022/04/28 07:21:37;;;;;;;14.00;2.58;;;10.10;99.90;;;;;;4901833;29;20074;-83
2022/04/28 07:24:03;;;;;;;15.43;2.92;;;10.00;99.90;;;;;;4882497;29;20051;-83
2022/04/28 07:26:28;;;;;;;14.88;2.30;;;10.00;99.90;;;;;;4885631;29;20041;-84
2022/04/28 07:28:54;;;;;;;15.38;2.17;;;9.90;99.90;;;;;;4888663;29;20055;-84
2022/04/28 07:31:20;;;;;;;15.23;2.47;;;10.00;99.90;;;;;;4907530;29;20032;-83
2022/04/28 07:33:46;;;;;;;17.75;1.90;;;10.10;99.90;;;;;;4884453;29;20048;-83
2022/04/28 07:36:12;;;;;;;8.90;1.67;;;10.30;99.90;;;;;;4876024;29;20053;-83
2022/04/28 07:38:39;;;;;;;12.20;2.13;;;10.10;99.90;;;;;;4878534;29;20067;-82
2022/04/28 07:41:05;;;;;;;12.88;2.10;;;10.10;99.90;;;;;;4889899;29;20054;-82
2022/04/28 07:43:31;;;;;;;9.43;1.58;;;10.20;99.90;;;;;;4882653;29;20040;-82
2022/04/28 07:45:57;;;;;;;15.52;2.10;;;10.30;99.90;;;;;;4884930;29;20303;-82
2022/04/28 07:48:23;;;;;;;11.95;1.55;;;10.30;99.90;;;;;;4888162;29;20678;-82
2022/04/28 07:50:50;;;;;;;10.63;1.90;;;10.40;99.90;;;;;;4886303;29;20488;-83
2022/04/28 07:53:16;;;;;;;12.13;1.73;;;10.40;99.90;;;;;;4892665;29;20497;-83
2022/04/28 07:55:42;;;;;;;11.52;1.88;;;10.60;99.90;;;;;;4882374;29;20052;-82
2022/04/28 07:58:08;;;;;;;12.05;1.85;;;10.60;99.90;;;;;;4887069;29;20051;-84
2022/04/28 08:00:33;;;;;;;13.57;1.60;;;10.60;99.90;;;;;;4884847;29;20629;-82
2022/04/28 08:02:59;;;;;;;12.15;1.98;;;10.80;99.90;;;;;;4886834;29;20070;-82
2022/04/28 08:05:25;;;;;;;10.52;1.88;;;11.00;99.90;;;;;;4871017;29;20071;-82
2022/04/28 08:07:51;;;;;;;11.57;2.15;;;11.10;99.90;;;;;;4887746;29;20135;-82
2022/04/28 08:10:17;;;;;;;12.15;2.35;;;11.10;99.90;;;;;;4886310;29;20055;-82
2022/04/28 08:12:43;;;;;;;15.27;2.25;;;11.10;99.90;;;;;;4886464;29;20385;-82
2022/04/28 08:15:09;;;;;;;10.10;1.50;;;11.00;99.90;;;;;;4886625;29;20048;-82
2022/04/28 08:17:35;;;;;;;10.88;1.48;;;11.20;99.90;;;;;;4868790;29;20053;-84
2022/04/28 08:20:00;;;;;;;9.35;1.40;;;11.60;99.90;;;;;;4896794;29;20508;-83
2022/04/28 08:22:26;;;;;;;8.63;1.58;;;11.70;99.90;;;;;;4885497;29;20151;-82
2022/04/28 08:24:51;;;;;;;11.15;1.75;;;11.80;99.90;;;;;;4872720;29;20382;-83
2022/04/28 08:27:17;;;;;;;6.60;1.85;;;11.70;99.90;;;;;;4871955;29;20513;-82
2022/04/28 08:29:43;;;;;;;15.32;2.80;;;11.60;99.90;;;;;;4882935;29;20090;-82
2022/04/28 08:32:09;;;;;;;14.50;1.98;;;11.50;99.90;;;;;;4883311;29;20068;-81
2022/04/28 08:34:36;;;;;;;13.23;2.65;;;11.50;99.90;;;;;;4884880;29;20052;-84
2022/04/28 08:37:02;;;;;;;12.27;2.95;;;11.50;99.90;;;;;;4885516;29;20071;-83
2022/04/28 08:39:27;;;;;;;12.40;2.90;;;11.50;99.90;;;;;;4887136;29;20154;-83
2022/04/28 08:41:55;;;;;;;14.07;2.53;;;11.50;99.90;;;;;;4893543;29;20196;-82
2022/04/28 08:44:23;;;;;;;11.40;2.30;;;11.40;99.90;;;;;;4885254;29;20055;-82
2022/04/28 08:46:50;;;;;;;11.50;2.10;;;11.40;99.90;;;;;;4883135;29;20548;-83
2022/04/28 08:49:17;;;;;;;12.20;2.45;;;11.50;99.90;;;;;;4882720;29;20048;-82
2022/04/28 08:51:43;;;;;;;13.93;2.97;;;11.30;99.90;;;;;;4875535;29;20052;-82
2022/04/28 08:54:11;;;;;;;11.82;3.05;;;11.30;99.90;;;;;;4890300;29;20139;-82
2022/04/28 08:56:39;;;;;;;17.25;4.00;;;11.20;99.90;;;;;;4884801;29;20041;-82
2022/04/28 08:59:06;;;;;;;18.77;3.50;;;11.30;99.90;;;;;;4869090;29;20417;-82
2022/04/28 09:01:31;;;;;;;11.43;3.17;;;11.40;99.90;;;;;;4883830;29;20176;-82
2022/04/28 09:03:59;;;;;;;19.77;3.08;;;11.50;99.90;;;;;;4880403;29;20365;-83
2022/04/28 09:06:29;;;;;;;12.63;2.95;;;11.60;99.90;;;;;;4886038;29;20040;-84
2022/04/28 09:08:56;;;;;;;12.98;3.17;;;11.90;99.90;;;;;;4896857;29;20123;-84
2022/04/28 09:11:25;;;;;;;17.90;2.50;;;11.90;99.90;;;;;;4901335;29;20059;-82
2022/04/28 09:14:09;;;;;;;15.63;3.03;;;11.80;99.90;;;;;;4890063;29;20049;-82
2022/04/28 09:16:35;;;;;;;12.00;2.75;;;11.80;99.90;;;;;;4888378;29;20064;-82
2022/04/28 09:19:01;;;;;;;13.82;2.30;;;11.60;99.90;;;;;;4895021;29;20501;-81
2022/04/28 09:21:27;;;;;;;12.02;2.20;;;11.50;99.90;;;;;;4895227;29;20055;-82
2022/04/28 09:23:53;;;;;;;13.63;2.60;;;11.60;99.90;;;;;;4894337;29;20052;-82
2022/04/28 09:26:24;;;;;;;11.30;2.00;;;11.70;99.90;;;;;;4894936;29;20059;-82
2022/04/28 09:28:49;;;;;;;12.02;2.50;;;11.80;99.90;;;;;;4879311;29;20059;-82
2022/04/28 09:31:18;;;;;;;15.07;2.72;;;11.70;99.90;;;;;;4877703;29;20408;-82
2022/04/28 09:33:46;;;;;;;14.25;2.72;;;11.70;99.90;;;;;;4895419;29;20521;-82
2022/04/28 09:36:13;;;;;;;12.40;2.03;;;11.70;99.90;;;;;;4876078;29;20056;-82
2022/04/28 09:38:39;;;;;;;12.23;2.20;;;11.70;99.90;;;;;;4874066;29;20053;-82
2022/04/28 09:43:55;;;;;;;18.13;2.33;;;11.80;99.90;;;;;;4856113;29;20049;-82
2022/04/28 09:46:23;;;;;;;13.40;2.25;;;11.70;99.90;;;;;;4874256;29;20139;-82
2022/04/28 09:48:50;;;;;;;12.10;2.13;;;11.70;99.90;;;;;;4856693;29;20057;-82
2022/04/28 09:51:22;;;;;;;12.65;2.20;;;11.80;99.90;;;;;;4857132;29;20185;-81
2022/04/28 09:53:48;;;;;;;10.63;2.78;;;11.90;99.90;;;;;;4856966;29;20057;-82
2022/04/28 09:56:16;;;;;;;15.00;2.38;;;12.00;99.90;;;;;;4857464;29;20124;-82
2022/04/28 09:58:42;;;;;;;13.68;2.85;;;12.10;99.90;;;;;;4856843;29;20177;-81
2022/04/28 10:01:08;;;;;;;19.33;2.47;;;12.10;99.90;;;;;;4856424;29;20053;-82
2022/04/28 10:03:35;;;;;;;9.43;2.10;;;12.10;99.90;;;;;;4857685;29;20048;-83
2022/04/28 10:06:03;;;;;;;19.73;2.83;;;12.20;99.90;;;;;;4856156;29;20049;-82
2022/04/28 10:08:33;;;;;;;16.92;2.47;;;12.10;99.90;;;;;;4857442;29;20101;-82
2022/04/28 10:11:01;;;;;;;15.68;2.50;;;12.20;99.90;;;;;;4857014;29;20067;-82
2022/04/28 10:13:28;;;;;;;16.73;2.40;;;12.20;99.90;;;;;;4857020;29;20128;-82
2022/04/28 10:16:00;;;;;;;13.73;2.33;;;12.30;99.90;;;;;;4875483;29;20060;-82
2022/04/28 10:18:35;;;;;;;10.27;2.13;;;12.30;99.90;;;;;;4861319;29;20053;-82
2022/04/28 10:21:05;;;;;;;14.88;2.22;;;12.30;99.90;;;;;;4860098;29;20052;-82
2022/04/28 10:32:53;;;;;;;12.82;2.35;;;12.00;99.90;;;;;;4878314;29;20045;-82
2022/04/28 10:35:31;;;;;;;11.68;2.13;;;11.90;99.90;;;;;;4887213;29;20056;-82
2022/04/28 10:38:06;;;;;;;15.82;2.30;;;12.10;99.90;;;;;;4902204;29;20119;-81
2022/04/28 10:40:38;;;;;;;13.88;2.13;;;12.00;99.90;;;;;;4882467;29;20135;-82
2022/04/28 10:43:17;;;;;;;17.88;2.30;;;12.00;99.90;;;;;;4899186;29;20045;-82
2022/04/28 10:45:44;;;;;;;14.20;2.42;;;12.00;99.90;;;;;;4873253;29;20058;-82
2022/04/28 10:48:28;;;;;;;17.58;2.35;;;12.10;99.90;;;;;;4863453;29;20057;-82
2022/04/28 10:51:06;;;;;;;17.30;2.40;;;12.10;99.90;;;;;;4888098;29;20090;-82
2022/04/28 10:53:34;;;;;;;18.73;2.75;;;12.00;99.90;;;;;;4880121;29;20059;-82
2022/04/28 10:56:12;;;;;;;17.35;2.22;;;12.00;99.90;;;;;;4887368;29;20112;-82
2022/04/28 10:58:38;;;;;;;14.27;2.58;;;12.00;99.90;;;;;;4863598;29;20053;-83
2022/04/28 11:01:04;;;;;;;14.45;2.47;;;12.30;99.90;;;;;;4887320;29;20049;-83
2022/04/28 11:03:46;;;;;;;21.48;2.38;;;12.20;99.90;;;;;;4895583;29;20046;-83
2022/04/28 11:06:15;;;;;;;11.98;2.20;;;12.40;99.90;;;;;;4878440;29;20072;-82
2022/04/28 11:08:49;;;;;;;12.68;1.90;;;12.50;99.90;;;;;;4881891;29;20127;-83
2022/04/28 11:11:15;;;;;;;11.43;2.35;;;12.50;99.90;;;;;;4898418;29;20082;-82
2022/04/28 11:13:44;;;;;;;19.65;2.97;;;12.70;99.90;;;;;;4882520;29;20052;-82
2022/04/28 11:16:12;;;;;;;10.25;2.17;;;12.70;99.90;;;;;;4899643;29;20486;-82
2022/04/28 11:18:38;;;;;;;11.13;2.28;;;12.60;99.90;;;;;;4891726;29;20138;-82
2022/04/28 11:21:04;;;;;;;14.60;2.25;;;12.50;99.90;;;;;;4892343;29;20076;-83
2022/04/28 11:23:34;;;;;;;15.02;2.17;;;12.40;99.90;;;;;;4894976;29;20127;-82
2022/04/28 11:26:02;;;;;;;13.85;2.00;;;12.40;99.90;;;;;;4877392;29;20484;-82
2022/04/28 11:28:29;;;;;;;17.23;2.17;;;12.30;99.90;;;;;;4902985;29;20104;-82
2022/04/28 11:30:55;;;;;;;13.20;2.10;;;12.30;99.90;;;;;;4905197;29;20151;-83
2022/04/28 11:33:21;;;;;;;15.55;2.63;;;12.20;99.90;;;;;;4894375;29;20123;-83
2022/04/28 11:35:47;;;;;;;14.52;2.17;;;12.20;99.90;;;;;;4886831;29;20134;-83
2022/04/28 11:38:13;;;;;;;8.13;1.75;;;12.30;99.90;;;;;;4895763;29;20051;-83
2022/04/28 11:40:39;;;;;;;10.88;2.25;;;12.30;99.90;;;;;;4890252;29;20032;-82
2022/04/28 11:43:05;;;;;;;9.93;1.90;;;12.50;99.90;;;;;;4886579;29;20056;-83
2022/04/28 11:45:32;;;;;;;11.57;2.03;;;12.30;99.90;;;;;;4906881;29;20126;-83
2022/04/28 11:48:00;;;;;;;15.88;2.50;;;12.40;99.90;;;;;;4879672;29;20058;-83
2022/04/28 11:50:30;;;;;;;16.15;2.40;;;12.30;99.90;;;;;;4906135;29;20402;-83
2022/04/28 11:53:00;;;;;;;23.58;2.45;;;12.30;99.90;;;;;;4891194;29;20132;-83
2022/04/28 11:55:29;;;;;;;11.45;2.10;;;12.40;99.90;;;;;;4882306;29;20048;-84
2022/04/28 11:57:55;;;;;;;13.35;2.33;;;12.50;99.90;;;;;;4911015;29;20090;-83
2022/04/28 12:00:24;;;;;;;14.40;2.58;;;12.50;99.90;;;;;;4906993;29;20080;-82
2022/04/28 12:02:51;;;;;;;16.20;2.08;;;12.50;99.90;;;;;;4895840;29;20044;-83
2022/04/28 12:05:21;;;;;;;21.15;2.47;;;12.70;99.90;;;;;;4881499;29;20052;-83
2022/04/28 12:07:51;;;;;;;19.58;2.38;;;12.80;99.90;;;;;;4874429;29;20180;-83
2022/04/28 12:15:54;;;;;;;21.58;2.83;;;13.00;99.90;;;;;;4904442;29;20040;-82
2022/04/28 12:21:22;;;;;;;17.85;2.28;;;13.30;99.90;;;;;;4887400;29;20137;-82
2022/04/28 12:23:51;;;;;;;10.60;1.83;;;13.00;99.90;;;;;;4877267;29;20065;-82
2022/04/28 12:26:20;;;;;;;11.05;2.08;;;13.10;99.90;;;;;;4882398;29;20131;-82
2022/04/28 12:28:46;;;;;;;11.00;2.05;;;13.10;99.90;;;;;;4879781;29;20103;-82
2022/04/28 12:31:15;;;;;;;9.48;1.58;;;13.20;99.90;;;;;;4886185;29;20166;-82
2022/04/28 12:33:44;;;;;;;13.63;2.20;;;13.10;99.90;;;;;;4895191;29;20048;-83
2022/04/28 12:36:13;;;;;;;11.85;1.83;;;13.20;99.90;;;;;;4887834;29;20083;-82
2022/04/28 12:38:45;;;;;;;11.57;1.88;;;13.10;99.90;;;;;;4912618;29;20067;-82
2022/04/28 12:41:14;;;;;;;13.53;2.10;;;13.30;99.90;;;;;;4890457;29;20507;-81
2022/04/28 12:43:43;;;;;;;14.32;2.30;;;13.30;99.90;;;;;;4913058;29;20154;-82
2022/04/28 12:46:10;;;;;;;10.85;2.00;;;13.30;99.90;;;;;;4882025;29;20464;-82
2022/04/28 12:48:38;;;;;;;14.82;2.72;;;13.30;99.90;;;;;;4895364;29;20040;-82
2022/04/28 12:51:12;;;;;;;12.88;2.15;;;13.30;99.90;;;;;;4903432;29;20408;-81
2022/04/28 12:53:39;;;;;;;11.35;1.73;;;13.40;99.90;;;;;;4879594;29;20059;-82
2022/04/28 12:56:07;;;;;;;8.45;2.13;;;13.40;99.90;;;;;;4891674;29;20048;-83
2022/04/28 12:58:43;;;;;;;13.32;1.60;;;13.40;99.90;;;;;;4912890;29;20051;-82
2022/04/28 13:01:11;;;;;;;8.93;2.45;;;13.30;99.90;;;;;;4891995;29;20044;-82
2022/04/28 13:03:39;;;;;;;14.02;1.58;;;13.20;99.90;;;;;;4877591;29;20398;-83
2022/04/28 13:06:04;;;;;;;14.85;2.50;;;13.10;99.90;;;;;;4891935;29;20959;-82
2022/04/28 13:08:31;;;;;;;16.33;2.00;;;13.10;99.90;;;;;;4879668;29;20552;-82
2022/04/28 13:10:57;;;;;;;7.80;1.50;;;13.20;99.90;;;;;;4892272;29;20104;-82
2022/04/28 13:13:22;;;;;;;7.60;1.60;;;13.30;99.90;;;;;;4895622;29;20080;-83
2022/04/28 13:15:48;;;;;;;10.73;1.77;;;13.40;99.90;;;;;;4876992;29;20055;-83
2022/04/28 13:18:14;;;;;;;10.50;1.60;;;13.10;99.90;;;;;;4884801;29;20058;-82
2022/04/28 13:20:39;;;;;;;15.48;2.05;;;13.10;99.90;;;;;;4889092;29;20415;-82